sensor_id;sensor_type;location;lat;lon;timestamp;P1;durP1;ratioP1;P2;durP2;ratioP2
15488;SDS011;7846;48.830;9.116;2022-07-23T00:00:21;4.23;;;3.93;;
15488;SDS011;7846;48.830;9.116;2022-07-23T00:03:06;4.53;;;3.83;;
15488;SDS011;7846;48.830;9.116;2022-07-23T00:05:55;3.90;;;3.50;;
15488;SDS011;7846;48.830;9.116;2022-07-23T00:08:38;3.80;;;3.50;;
15488;SDS011;7846;48.830;9.116;2022-07-23T00:11:22;3.93;;;3.60;;
15488;SDS011;7846;48.830;9.116;2022-07-23T00:14:06;3.77;;;3.37;;
15488;SDS011;7846;48.830;9.116;2022-07-23T00:16:50;3.73;;;3.43;;
15488;SDS011;7846;48.830;9.116;2022-07-23T00:19:34;4.00;;;3.70;;
15488;SDS011;7846;48.830;9.116;2022-07-23T00:22:20;3.90;;;3.60;;
15488;SDS011;7846;48.830;9.116;2022-07-23T00:25:04;4.20;;;3.50;;
15488;SDS011;7846;48.830;9.116;2022-07-23T00:27:48;4.17;;;3.53;;
15488;SDS011;7846;48.830;9.116;2022-07-23T00:30:32;3.60;;;3.40;;
15488;SDS011;7846;48.830;9.116;2022-07-23T00:33:17;3.93;;;3.63;;
15488;SDS011;7846;48.830;9.116;2022-07-23T00:36:02;3.97;;;3.50;;
15488;SDS011;7846;48.830;9.116;2022-07-23T00:38:46;3.90;;;3.60;;
15488;SDS011;7846;48.830;9.116;2022-07-23T00:41:30;3.90;;;3.60;;
15488;SDS011;7846;48.830;9.116;2022-07-23T00:44:19;3.77;;;3.47;;
15488;SDS011;7846;48.830;9.116;2022-07-23T00:47:04;3.83;;;3.53;;
15488;SDS011;7846;48.830;9.116;2022-07-23T00:49:50;4.53;;;3.90;;
15488;SDS011;7846;48.830;9.116;2022-07-23T00:52:34;3.90;;;3.60;;
15488;SDS011;7846;48.830;9.116;2022-07-23T00:55:18;4.87;;;3.70;;
15488;SDS011;7846;48.830;9.116;2022-07-23T00:58:02;3.70;;;3.40;;
15488;SDS011;7846;48.830;9.116;2022-07-23T01:00:49;4.10;;;3.80;;
15488;SDS011;7846;48.830;9.116;2022-07-23T01:03:33;4.13;;;3.67;;
15488;SDS011;7846;48.830;9.116;2022-07-23T01:06:19;4.23;;;3.93;;
15488;SDS011;7846;48.830;9.116;2022-07-23T01:09:04;3.90;;;3.60;;
15488;SDS011;7846;48.830;9.116;2022-07-23T01:11:50;4.07;;;3.67;;
15488;SDS011;7846;48.830;9.116;2022-07-23T01:14:35;3.83;;;3.53;;
15488;SDS011;7846;48.830;9.116;2022-07-23T01:17:23;4.00;;;3.70;;
15488;SDS011;7846;48.830;9.116;2022-07-23T01:20:07;3.80;;;3.50;;
15488;SDS011;7846;48.830;9.116;2022-07-23T01:22:52;4.30;;;3.83;;
15488;SDS011;7846;48.830;9.116;2022-07-23T01:25:46;4.17;;;3.77;;
15488;SDS011;7846;48.830;9.116;2022-07-23T01:28:31;4.13;;;3.73;;
15488;SDS011;7846;48.830;9.116;2022-07-23T01:31:15;3.77;;;3.57;;
15488;SDS011;7846;48.830;9.116;2022-07-23T01:33:59;3.80;;;3.50;;
15488;SDS011;7846;48.830;9.116;2022-07-23T01:36:46;3.73;;;3.53;;
15488;SDS011;7846;48.830;9.116;2022-07-23T01:39:30;4.10;;;3.70;;
15488;SDS011;7846;48.830;9.116;2022-07-23T01:42:14;3.87;;;3.57;;
15488;SDS011;7846;48.830;9.116;2022-07-23T01:44:58;4.20;;;3.90;;
15488;SDS011;7846;48.830;9.116;2022-07-23T01:47:43;3.80;;;3.50;;
15488;SDS011;7846;48.830;9.116;2022-07-23T01:50:27;3.90;;;3.60;;
15488;SDS011;7846;48.830;9.116;2022-07-23T01:53:14;4.10;;;3.40;;
15488;SDS011;7846;48.830;9.116;2022-07-23T01:55:58;3.80;;;3.50;;
15488;SDS011;7846;48.830;9.116;2022-07-23T01:58:44;4.97;;;3.77;;
15488;SDS011;7846;48.830;9.116;2022-07-23T02:01:43;3.80;;;3.50;;
15488;SDS011;7846;48.830;9.116;2022-07-23T02:04:27;3.90;;;3.67;;
15488;SDS011;7846;48.830;9.116;2022-07-23T02:07:12;4.13;;;3.77;;
15488;SDS011;7846;48.830;9.116;2022-07-23T02:09:56;3.77;;;3.47;;
15488;SDS011;7846;48.830;9.116;2022-07-23T02:12:41;3.80;;;3.50;;
15488;SDS011;7846;48.830;9.116;2022-07-23T02:15:25;4.27;;;3.80;;
15488;SDS011;7846;48.830;9.116;2022-07-23T02:18:09;4.37;;;3.97;;
15488;SDS011;7846;48.830;9.116;2022-07-23T02:20:53;4.30;;;3.90;;
15488;SDS011;7846;48.830;9.116;2022-07-23T02:23:37;3.97;;;3.67;;
15488;SDS011;7846;48.830;9.116;2022-07-23T02:26:21;4.47;;;4.07;;
15488;SDS011;7846;48.830;9.116;2022-07-23T02:29:05;4.33;;;3.90;;
15488;SDS011;7846;48.830;9.116;2022-07-23T02:31:49;4.40;;;4.00;;
15488;SDS011;7846;48.830;9.116;2022-07-23T02:34:33;4.50;;;3.90;;
15488;SDS011;7846;48.830;9.116;2022-07-23T02:37:17;4.17;;;3.87;;
15488;SDS011;7846;48.830;9.116;2022-07-23T02:40:04;4.43;;;4.00;;
15488;SDS011;7846;48.830;9.116;2022-07-23T02:42:52;4.20;;;3.90;;
15488;SDS011;7846;48.830;9.116;2022-07-23T02:45:36;4.20;;;3.90;;
15488;SDS011;7846;48.830;9.116;2022-07-23T02:48:20;4.30;;;4.00;;
15488;SDS011;7846;48.830;9.116;2022-07-23T02:51:04;4.50;;;4.10;;
15488;SDS011;7846;48.830;9.116;2022-07-23T02:53:48;4.30;;;4.00;;
15488;SDS011;7846;48.830;9.116;2022-07-23T02:56:32;4.20;;;3.90;;
15488;SDS011;7846;48.830;9.116;2022-07-23T02:59:16;4.43;;;4.03;;
15488;SDS011;7846;48.830;9.116;2022-07-23T03:02:00;4.40;;;4.10;;
15488;SDS011;7846;48.830;9.116;2022-07-23T03:04:44;4.70;;;4.30;;
15488;SDS011;7846;48.830;9.116;2022-07-23T03:07:29;4.90;;;4.40;;
15488;SDS011;7846;48.830;9.116;2022-07-23T03:10:31;4.80;;;4.40;;
15488;SDS011;7846;48.830;9.116;2022-07-23T03:13:18;4.60;;;4.20;;
15488;SDS011;7846;48.830;9.116;2022-07-23T03:16:03;5.23;;;4.73;;
15488;SDS011;7846;48.830;9.116;2022-07-23T03:18:48;4.80;;;4.30;;
15488;SDS011;7846;48.830;9.116;2022-07-23T03:21:32;4.43;;;4.07;;
15488;SDS011;7846;48.830;9.116;2022-07-23T03:24:17;4.60;;;4.30;;
15488;SDS011;7846;48.830;9.116;2022-07-23T03:27:01;4.20;;;3.90;;
15488;SDS011;7846;48.830;9.116;2022-07-23T03:29:47;4.57;;;4.20;;
15488;SDS011;7846;48.830;9.116;2022-07-23T03:32:31;4.40;;;4.00;;
15488;SDS011;7846;48.830;9.116;2022-07-23T03:35:19;4.27;;;3.87;;
15488;SDS011;7846;48.830;9.116;2022-07-23T03:38:03;4.27;;;3.97;;
15488;SDS011;7846;48.830;9.116;2022-07-23T03:40:48;4.50;;;4.20;;
15488;SDS011;7846;48.830;9.116;2022-07-23T03:43:32;4.57;;;4.17;;
15488;SDS011;7846;48.830;9.116;2022-07-23T03:46:19;4.03;;;3.83;;
15488;SDS011;7846;48.830;9.116;2022-07-23T03:49:05;4.00;;;3.70;;
15488;SDS011;7846;48.830;9.116;2022-07-23T03:54:58;4.30;;;4.00;;
15488;SDS011;7846;48.830;9.116;2022-07-23T03:57:42;3.90;;;3.67;;
15488;SDS011;7846;48.830;9.116;2022-07-23T04:00:26;4.20;;;3.90;;
15488;SDS011;7846;48.830;9.116;2022-07-23T04:03:13;4.40;;;4.10;;
15488;SDS011;7846;48.830;9.116;2022-07-23T04:05:58;4.50;;;4.10;;
15488;SDS011;7846;48.830;9.116;2022-07-23T04:08:42;4.70;;;4.30;;
15488;SDS011;7846;48.830;9.116;2022-07-23T04:11:27;4.43;;;4.10;;
15488;SDS011;7846;48.830;9.116;2022-07-23T04:14:11;4.90;;;4.50;;
15488;SDS011;7846;48.830;9.116;2022-07-23T04:16:56;4.63;;;4.10;;
15488;SDS011;7846;48.830;9.116;2022-07-23T04:19:40;4.37;;;4.07;;
15488;SDS011;7846;48.830;9.116;2022-07-23T04:22:27;4.60;;;4.20;;
15488;SDS011;7846;48.830;9.116;2022-07-23T04:25:11;4.77;;;4.40;;
15488;SDS011;7846;48.830;9.116;2022-07-23T04:27:57;4.40;;;4.10;;
15488;SDS011;7846;48.830;9.116;2022-07-23T04:30:41;4.70;;;4.30;;
15488;SDS011;7846;48.830;9.116;2022-07-23T04:33:26;4.70;;;4.30;;
15488;SDS011;7846;48.830;9.116;2022-07-23T04:36:11;4.57;;;4.17;;
15488;SDS011;7846;48.830;9.116;2022-07-23T04:38:56;4.80;;;4.30;;
15488;SDS011;7846;48.830;9.116;2022-07-23T04:41:40;4.33;;;4.03;;
15488;SDS011;7846;48.830;9.116;2022-07-23T04:44:24;4.27;;;3.97;;
15488;SDS011;7846;48.830;9.116;2022-07-23T04:47:08;4.23;;;3.93;;
15488;SDS011;7846;48.830;9.116;2022-07-23T04:49:54;4.60;;;4.20;;
15488;SDS011;7846;48.830;9.116;2022-07-23T04:52:38;5.03;;;4.57;;
15488;SDS011;7846;48.830;9.116;2022-07-23T04:55:25;4.33;;;4.03;;
15488;SDS011;7846;48.830;9.116;2022-07-23T04:58:09;4.30;;;4.00;;
15488;SDS011;7846;48.830;9.116;2022-07-23T05:00:53;4.27;;;3.93;;
15488;SDS011;7846;48.830;9.116;2022-07-23T05:03:36;4.40;;;4.00;;
15488;SDS011;7846;48.830;9.116;2022-07-23T05:06:20;4.70;;;4.20;;
15488;SDS011;7846;48.830;9.116;2022-07-23T05:09:08;5.30;;;4.30;;
15488;SDS011;7846;48.830;9.116;2022-07-23T05:11:52;4.57;;;4.17;;
15488;SDS011;7846;48.830;9.116;2022-07-23T05:14:35;4.43;;;4.10;;
15488;SDS011;7846;48.830;9.116;2022-07-23T05:17:22;4.47;;;4.07;;
15488;SDS011;7846;48.830;9.116;2022-07-23T05:20:06;4.77;;;4.37;;
15488;SDS011;7846;48.830;9.116;2022-07-23T05:22:50;4.97;;;4.47;;
15488;SDS011;7846;48.830;9.116;2022-07-23T05:25:35;4.70;;;4.30;;
15488;SDS011;7846;48.830;9.116;2022-07-23T05:28:20;4.60;;;4.20;;
15488;SDS011;7846;48.830;9.116;2022-07-23T05:31:04;4.70;;;4.20;;
15488;SDS011;7846;48.830;9.116;2022-07-23T05:33:51;4.80;;;4.20;;
15488;SDS011;7846;48.830;9.116;2022-07-23T05:36:36;4.63;;;4.33;;
15488;SDS011;7846;48.830;9.116;2022-07-23T05:39:20;4.70;;;4.30;;
15488;SDS011;7846;48.830;9.116;2022-07-23T05:42:04;4.83;;;4.43;;
15488;SDS011;7846;48.830;9.116;2022-07-23T05:44:48;4.43;;;4.13;;
15488;SDS011;7846;48.830;9.116;2022-07-23T05:47:46;5.00;;;4.40;;
15488;SDS011;7846;48.830;9.116;2022-07-23T05:50:34;5.07;;;4.40;;
15488;SDS011;7846;48.830;9.116;2022-07-23T05:53:18;4.70;;;4.30;;
15488;SDS011;7846;48.830;9.116;2022-07-23T05:56:02;4.60;;;4.20;;
15488;SDS011;7846;48.830;9.116;2022-07-23T05:58:51;4.67;;;4.20;;
15488;SDS011;7846;48.830;9.116;2022-07-23T06:01:37;4.77;;;4.30;;
15488;SDS011;7846;48.830;9.116;2022-07-23T06:04:21;5.07;;;4.67;;
15488;SDS011;7846;48.830;9.116;2022-07-23T06:07:08;5.13;;;4.63;;
15488;SDS011;7846;48.830;9.116;2022-07-23T06:09:52;5.60;;;5.10;;
15488;SDS011;7846;48.830;9.116;2022-07-23T06:12:37;8.10;;;4.87;;
15488;SDS011;7846;48.830;9.116;2022-07-23T06:15:23;5.23;;;4.67;;
15488;SDS011;7846;48.830;9.116;2022-07-23T06:18:14;4.73;;;4.37;;
15488;SDS011;7846;48.830;9.116;2022-07-23T06:20:58;4.93;;;4.53;;
15488;SDS011;7846;48.830;9.116;2022-07-23T06:23:42;4.63;;;4.33;;
15488;SDS011;7846;48.830;9.116;2022-07-23T06:26:26;4.73;;;4.33;;
15488;SDS011;7846;48.830;9.116;2022-07-23T06:29:13;6.50;;;4.67;;
15488;SDS011;7846;48.830;9.116;2022-07-23T06:31:57;4.87;;;4.27;;
15488;SDS011;7846;48.830;9.116;2022-07-23T06:34:41;4.47;;;4.17;;
15488;SDS011;7846;48.830;9.116;2022-07-23T06:37:26;4.90;;;4.50;;
15488;SDS011;7846;48.830;9.116;2022-07-23T06:40:10;5.40;;;4.90;;
15488;SDS011;7846;48.830;9.116;2022-07-23T06:42:57;5.80;;;5.30;;
15488;SDS011;7846;48.830;9.116;2022-07-23T06:45:45;5.97;;;5.13;;
15488;SDS011;7846;48.830;9.116;2022-07-23T06:48:30;5.67;;;5.17;;
15488;SDS011;7846;48.830;9.116;2022-07-23T06:51:21;5.37;;;4.80;;
15488;SDS011;7846;48.830;9.116;2022-07-23T06:54:08;4.80;;;4.40;;
15488;SDS011;7846;48.830;9.116;2022-07-23T06:56:52;4.80;;;4.40;;
15488;SDS011;7846;48.830;9.116;2022-07-23T06:59:39;4.97;;;4.57;;
15488;SDS011;7846;48.830;9.116;2022-07-23T07:02:24;5.83;;;4.80;;
15488;SDS011;7846;48.830;9.116;2022-07-23T07:05:09;7.50;;;5.27;;
15488;SDS011;7846;48.830;9.116;2022-07-23T07:07:54;6.33;;;5.20;;
15488;SDS011;7846;48.830;9.116;2022-07-23T07:10:39;5.67;;;5.17;;
15488;SDS011;7846;48.830;9.116;2022-07-23T07:13:30;6.53;;;5.00;;
15488;SDS011;7846;48.830;9.116;2022-07-23T07:16:23;5.97;;;5.40;;
15488;SDS011;7846;48.830;9.116;2022-07-23T07:19:07;5.47;;;5.00;;
15488;SDS011;7846;48.830;9.116;2022-07-23T07:21:52;5.60;;;5.07;;
15488;SDS011;7846;48.830;9.116;2022-07-23T07:24:37;6.03;;;5.30;;
15488;SDS011;7846;48.830;9.116;2022-07-23T07:27:21;6.67;;;6.07;;
15488;SDS011;7846;48.830;9.116;2022-07-23T07:30:07;6.37;;;5.87;;
15488;SDS011;7846;48.830;9.116;2022-07-23T07:32:51;7.57;;;6.80;;
15488;SDS011;7846;48.830;9.116;2022-07-23T07:35:35;8.60;;;7.40;;
15488;SDS011;7846;48.830;9.116;2022-07-23T07:38:24;7.13;;;6.43;;
15488;SDS011;7846;48.830;9.116;2022-07-23T07:41:08;7.50;;;6.80;;
15488;SDS011;7846;48.830;9.116;2022-07-23T07:43:54;7.50;;;6.70;;
15488;SDS011;7846;48.830;9.116;2022-07-23T07:46:38;7.47;;;6.70;;
15488;SDS011;7846;48.830;9.116;2022-07-23T07:49:22;8.33;;;6.50;;
15488;SDS011;7846;48.830;9.116;2022-07-23T07:52:07;6.80;;;6.07;;
15488;SDS011;7846;48.830;9.116;2022-07-23T07:54:51;6.73;;;6.13;;
15488;SDS011;7846;48.830;9.116;2022-07-23T07:57:35;5.97;;;5.47;;
15488;SDS011;7846;48.830;9.116;2022-07-23T08:00:21;6.03;;;5.53;;
15488;SDS011;7846;48.830;9.116;2022-07-23T08:03:06;6.70;;;6.10;;
15488;SDS011;7846;48.830;9.116;2022-07-23T08:05:51;6.10;;;5.60;;
15488;SDS011;7846;48.830;9.116;2022-07-23T08:08:36;6.00;;;5.50;;
15488;SDS011;7846;48.830;9.116;2022-07-23T08:11:21;5.90;;;5.40;;
15488;SDS011;7846;48.830;9.116;2022-07-23T08:14:08;5.53;;;5.10;;
15488;SDS011;7846;48.830;9.116;2022-07-23T08:16:53;5.30;;;4.90;;
15488;SDS011;7846;48.830;9.116;2022-07-23T08:19:38;5.30;;;4.80;;
15488;SDS011;7846;48.830;9.116;2022-07-23T08:22:40;5.60;;;5.00;;
15488;SDS011;7846;48.830;9.116;2022-07-23T08:25:39;5.23;;;4.83;;
15488;SDS011;7846;48.830;9.116;2022-07-23T08:28:25;5.30;;;4.90;;
15488;SDS011;7846;48.830;9.116;2022-07-23T08:31:10;4.83;;;4.53;;
15488;SDS011;7846;48.830;9.116;2022-07-23T08:33:59;5.50;;;5.00;;
15488;SDS011;7846;48.830;9.116;2022-07-23T08:36:43;4.83;;;4.53;;
15488;SDS011;7846;48.830;9.116;2022-07-23T08:39:27;5.07;;;4.67;;
15488;SDS011;7846;48.830;9.116;2022-07-23T08:42:16;4.80;;;4.40;;
15488;SDS011;7846;48.830;9.116;2022-07-23T08:45:01;4.73;;;4.40;;
15488;SDS011;7846;48.830;9.116;2022-07-23T08:47:51;4.50;;;4.20;;
15488;SDS011;7846;48.830;9.116;2022-07-23T08:50:42;4.57;;;4.10;;
15488;SDS011;7846;48.830;9.116;2022-07-23T08:53:31;4.33;;;3.93;;
15488;SDS011;7846;48.830;9.116;2022-07-23T08:56:17;4.27;;;3.97;;
15488;SDS011;7846;48.830;9.116;2022-07-23T08:59:01;4.43;;;4.10;;
15488;SDS011;7846;48.830;9.116;2022-07-23T09:01:49;4.40;;;4.00;;
15488;SDS011;7846;48.830;9.116;2022-07-23T09:04:34;4.77;;;4.27;;
15488;SDS011;7846;48.830;9.116;2022-07-23T09:07:18;4.50;;;4.10;;
15488;SDS011;7846;48.830;9.116;2022-07-23T09:10:10;4.47;;;4.03;;
15488;SDS011;7846;48.830;9.116;2022-07-23T09:12:55;4.33;;;4.03;;
15488;SDS011;7846;48.830;9.116;2022-07-23T09:15:47;4.40;;;4.10;;
15488;SDS011;7846;48.830;9.116;2022-07-23T09:18:37;4.17;;;3.87;;
15488;SDS011;7846;48.830;9.116;2022-07-23T09:21:35;4.20;;;3.83;;
15488;SDS011;7846;48.830;9.116;2022-07-23T09:24:20;4.23;;;3.93;;
15488;SDS011;7846;48.830;9.116;2022-07-23T09:27:04;4.10;;;3.80;;
15488;SDS011;7846;48.830;9.116;2022-07-23T09:29:55;4.10;;;3.80;;
15488;SDS011;7846;48.830;9.116;2022-07-23T09:32:41;4.10;;;3.80;;
15488;SDS011;7846;48.830;9.116;2022-07-23T09:35:42;4.00;;;3.70;;
15488;SDS011;7846;48.830;9.116;2022-07-23T09:38:49;3.83;;;3.63;;
15488;SDS011;7846;48.830;9.116;2022-07-23T09:41:43;4.00;;;3.67;;
15488;SDS011;7846;48.830;9.116;2022-07-23T09:44:30;3.83;;;3.60;;
15488;SDS011;7846;48.830;9.116;2022-07-23T09:47:14;3.90;;;3.70;;
15488;SDS011;7846;48.830;9.116;2022-07-23T09:50:01;4.03;;;3.73;;
15488;SDS011;7846;48.830;9.116;2022-07-23T09:52:49;3.97;;;3.67;;
15488;SDS011;7846;48.830;9.116;2022-07-23T09:55:35;4.00;;;3.70;;
15488;SDS011;7846;48.830;9.116;2022-07-23T09:58:23;4.50;;;4.10;;
15488;SDS011;7846;48.830;9.116;2022-07-23T10:01:10;4.50;;;4.20;;
15488;SDS011;7846;48.830;9.116;2022-07-23T10:03:57;4.37;;;3.97;;
15488;SDS011;7846;48.830;9.116;2022-07-23T10:06:41;4.30;;;4.00;;
15488;SDS011;7846;48.830;9.116;2022-07-23T10:09:29;4.47;;;4.00;;
15488;SDS011;7846;48.830;9.116;2022-07-23T10:12:16;4.37;;;3.93;;
15488;SDS011;7846;48.830;9.116;2022-07-23T10:15:03;4.80;;;4.40;;
15488;SDS011;7846;48.830;9.116;2022-07-23T10:17:51;4.60;;;4.30;;
15488;SDS011;7846;48.830;9.116;2022-07-23T10:20:35;4.70;;;4.30;;
15488;SDS011;7846;48.830;9.116;2022-07-23T10:23:24;4.47;;;4.07;;
15488;SDS011;7846;48.830;9.116;2022-07-23T10:35:33;4.37;;;4.00;;
15488;SDS011;7846;48.830;9.116;2022-07-23T10:38:42;4.30;;;4.00;;
15488;SDS011;7846;48.830;9.116;2022-07-23T10:41:36;3.93;;;3.60;;
15488;SDS011;7846;48.830;9.116;2022-07-23T10:44:23;4.00;;;3.70;;
15488;SDS011;7846;48.830;9.116;2022-07-23T10:47:21;4.27;;;3.97;;
15488;SDS011;7846;48.830;9.116;2022-07-23T10:50:27;4.43;;;4.10;;
15488;SDS011;7846;48.830;9.116;2022-07-23T10:53:18;4.30;;;3.90;;
15488;SDS011;7846;48.830;9.116;2022-07-23T10:56:04;4.30;;;4.00;;
15488;SDS011;7846;48.830;9.116;2022-07-23T10:58:49;4.40;;;4.10;;
15488;SDS011;7846;48.830;9.116;2022-07-23T11:01:37;4.83;;;4.10;;
15488;SDS011;7846;48.830;9.116;2022-07-23T11:04:39;4.57;;;4.17;;
15488;SDS011;7846;48.830;9.116;2022-07-23T11:07:33;4.33;;;4.00;;
15488;SDS011;7846;48.830;9.116;2022-07-23T11:10:38;4.57;;;4.17;;
15488;SDS011;7846;48.830;9.116;2022-07-23T11:13:25;4.47;;;4.07;;
15488;SDS011;7846;48.830;9.116;2022-07-23T11:16:14;4.70;;;4.40;;
15488;SDS011;7846;48.830;9.116;2022-07-23T11:19:07;4.80;;;4.33;;
15488;SDS011;7846;48.830;9.116;2022-07-23T11:21:52;4.40;;;4.00;;
15488;SDS011;7846;48.830;9.116;2022-07-23T11:24:46;4.87;;;4.47;;
15488;SDS011;7846;48.830;9.116;2022-07-23T11:27:38;4.47;;;3.97;;
15488;SDS011;7846;48.830;9.116;2022-07-23T11:36:03;5.13;;;4.37;;
15488;SDS011;7846;48.830;9.116;2022-07-23T11:38:47;4.77;;;4.37;;
15488;SDS011;7846;48.830;9.116;2022-07-23T11:41:43;5.63;;;4.83;;
15488;SDS011;7846;48.830;9.116;2022-07-23T11:44:28;4.87;;;4.47;;
15488;SDS011;7846;48.830;9.116;2022-07-23T11:47:13;5.80;;;4.50;;
15488;SDS011;7846;48.830;9.116;2022-07-23T11:49:58;4.80;;;4.50;;
15488;SDS011;7846;48.830;9.116;2022-07-23T11:52:44;4.50;;;4.10;;
15488;SDS011;7846;48.830;9.116;2022-07-23T11:55:30;4.63;;;4.27;;
15488;SDS011;7846;48.830;9.116;2022-07-23T11:58:14;5.10;;;4.70;;
15488;SDS011;7846;48.830;9.116;2022-07-23T12:00:59;4.27;;;3.93;;
15488;SDS011;7846;48.830;9.116;2022-07-23T12:03:52;5.73;;;4.20;;
15488;SDS011;7846;48.830;9.116;2022-07-23T12:06:39;4.43;;;4.03;;
15488;SDS011;7846;48.830;9.116;2022-07-23T12:09:23;8.87;;;4.60;;
15488;SDS011;7846;48.830;9.116;2022-07-23T12:12:07;4.83;;;4.20;;
15488;SDS011;7846;48.830;9.116;2022-07-23T12:14:56;7.50;;;4.60;;
15488;SDS011;7846;48.830;9.116;2022-07-23T12:17:41;4.83;;;4.43;;
15488;SDS011;7846;48.830;9.116;2022-07-23T12:20:28;5.13;;;4.60;;
15488;SDS011;7846;48.830;9.116;2022-07-23T12:26:31;4.93;;;4.53;;
15488;SDS011;7846;48.830;9.116;2022-07-23T12:29:15;4.73;;;4.33;;
15488;SDS011;7846;48.830;9.116;2022-07-23T12:31:59;5.20;;;4.63;;
15488;SDS011;7846;48.830;9.116;2022-07-23T12:35:06;5.20;;;4.80;;
15488;SDS011;7846;48.830;9.116;2022-07-23T12:37:51;4.90;;;4.53;;
15488;SDS011;7846;48.830;9.116;2022-07-23T12:40:46;5.17;;;4.77;;
15488;SDS011;7846;48.830;9.116;2022-07-23T12:43:37;5.30;;;4.50;;
15488;SDS011;7846;48.830;9.116;2022-07-23T12:46:23;4.70;;;4.30;;
15488;SDS011;7846;48.830;9.116;2022-07-23T12:49:07;4.57;;;4.17;;
15488;SDS011;7846;48.830;9.116;2022-07-23T12:51:52;5.57;;;4.57;;
15488;SDS011;7846;48.830;9.116;2022-07-23T12:54:39;4.50;;;4.20;;
15488;SDS011;7846;48.830;9.116;2022-07-23T12:57:44;4.60;;;4.30;;
15488;SDS011;7846;48.830;9.116;2022-07-23T13:00:31;4.80;;;4.40;;
15488;SDS011;7846;48.830;9.116;2022-07-23T13:03:23;4.90;;;4.40;;
15488;SDS011;7846;48.830;9.116;2022-07-23T13:06:30;5.57;;;4.67;;
15488;SDS011;7846;48.830;9.116;2022-07-23T13:09:20;5.23;;;4.73;;
15488;SDS011;7846;48.830;9.116;2022-07-23T13:12:08;4.70;;;4.30;;
15488;SDS011;7846;48.830;9.116;2022-07-23T13:14:54;5.33;;;4.70;;
15488;SDS011;7846;48.830;9.116;2022-07-23T13:17:38;4.70;;;4.40;;
15488;SDS011;7846;48.830;9.116;2022-07-23T13:20:23;5.20;;;4.70;;
15488;SDS011;7846;48.830;9.116;2022-07-23T13:23:07;4.83;;;4.40;;
15488;SDS011;7846;48.830;9.116;2022-07-23T13:25:51;5.30;;;4.80;;
15488;SDS011;7846;48.830;9.116;2022-07-23T13:28:36;4.67;;;4.37;;
15488;SDS011;7846;48.830;9.116;2022-07-23T13:31:20;5.30;;;4.80;;
15488;SDS011;7846;48.830;9.116;2022-07-23T13:34:06;4.70;;;4.30;;
15488;SDS011;7846;48.830;9.116;2022-07-23T13:36:50;5.10;;;4.63;;
15488;SDS011;7846;48.830;9.116;2022-07-23T13:39:34;5.83;;;5.33;;
15488;SDS011;7846;48.830;9.116;2022-07-23T13:42:18;5.40;;;5.00;;
15488;SDS011;7846;48.830;9.116;2022-07-23T13:45:03;5.37;;;4.70;;
15488;SDS011;7846;48.830;9.116;2022-07-23T13:47:49;4.67;;;4.30;;
15488;SDS011;7846;48.830;9.116;2022-07-23T13:50:33;5.00;;;4.57;;
15488;SDS011;7846;48.830;9.116;2022-07-23T13:53:19;4.70;;;4.30;;
15488;SDS011;7846;48.830;9.116;2022-07-23T13:56:04;4.90;;;4.50;;
15488;SDS011;7846;48.830;9.116;2022-07-23T13:58:51;4.53;;;4.13;;
15488;SDS011;7846;48.830;9.116;2022-07-23T14:01:35;5.07;;;4.63;;
15488;SDS011;7846;48.830;9.116;2022-07-23T14:04:20;4.70;;;4.30;;
15488;SDS011;7846;48.830;9.116;2022-07-23T14:07:05;4.90;;;4.50;;
15488;SDS011;7846;48.830;9.116;2022-07-23T14:09:49;4.80;;;4.40;;
15488;SDS011;7846;48.830;9.116;2022-07-23T14:12:33;5.40;;;4.77;;
15488;SDS011;7846;48.830;9.116;2022-07-23T14:15:17;4.37;;;4.03;;
15488;SDS011;7846;48.830;9.116;2022-07-23T14:18:01;4.20;;;3.90;;
15488;SDS011;7846;48.830;9.116;2022-07-23T14:20:45;4.40;;;4.00;;
15488;SDS011;7846;48.830;9.116;2022-07-23T14:23:32;5.00;;;4.53;;
15488;SDS011;7846;48.830;9.116;2022-07-23T14:26:17;5.13;;;4.73;;
15488;SDS011;7846;48.830;9.116;2022-07-23T14:29:03;5.00;;;4.60;;
15488;SDS011;7846;48.830;9.116;2022-07-23T14:31:49;4.60;;;4.30;;
15488;SDS011;7846;48.830;9.116;2022-07-23T14:34:34;4.60;;;4.30;;
15488;SDS011;7846;48.830;9.116;2022-07-23T14:37:20;4.80;;;4.40;;
15488;SDS011;7846;48.830;9.116;2022-07-23T14:40:04;4.73;;;4.27;;
15488;SDS011;7846;48.830;9.116;2022-07-23T14:42:49;4.10;;;3.80;;
15488;SDS011;7846;48.830;9.116;2022-07-23T14:45:33;4.23;;;3.93;;
15488;SDS011;7846;48.830;9.116;2022-07-23T14:48:18;4.30;;;4.00;;
15488;SDS011;7846;48.830;9.116;2022-07-23T14:51:02;4.17;;;3.87;;
15488;SDS011;7846;48.830;9.116;2022-07-23T14:53:47;4.17;;;3.80;;
15488;SDS011;7846;48.830;9.116;2022-07-23T14:56:31;4.53;;;4.20;;
15488;SDS011;7846;48.830;9.116;2022-07-23T14:59:17;4.23;;;3.83;;
15488;SDS011;7846;48.830;9.116;2022-07-23T15:02:01;4.63;;;4.33;;
15488;SDS011;7846;48.830;9.116;2022-07-23T15:04:45;4.40;;;4.10;;
15488;SDS011;7846;48.830;9.116;2022-07-23T15:07:29;4.83;;;4.53;;
15488;SDS011;7846;48.830;9.116;2022-07-23T15:10:14;4.80;;;4.40;;
15488;SDS011;7846;48.830;9.116;2022-07-23T15:12:57;5.00;;;4.60;;
15488;SDS011;7846;48.830;9.116;2022-07-23T15:15:41;5.10;;;4.70;;
15488;SDS011;7846;48.830;9.116;2022-07-23T15:18:25;4.93;;;4.53;;
15488;SDS011;7846;48.830;9.116;2022-07-23T15:21:11;5.37;;;4.87;;
15488;SDS011;7846;48.830;9.116;2022-07-23T15:23:58;4.83;;;4.47;;
15488;SDS011;7846;48.830;9.116;2022-07-23T15:26:42;4.80;;;4.40;;
15488;SDS011;7846;48.830;9.116;2022-07-23T15:29:29;4.73;;;4.43;;
15488;SDS011;7846;48.830;9.116;2022-07-23T15:32:13;4.90;;;4.50;;
15488;SDS011;7846;48.830;9.116;2022-07-23T15:34:57;4.60;;;4.20;;
15488;SDS011;7846;48.830;9.116;2022-07-23T15:37:43;4.80;;;4.40;;
15488;SDS011;7846;48.830;9.116;2022-07-23T15:40:27;4.50;;;4.20;;
15488;SDS011;7846;48.830;9.116;2022-07-23T15:43:12;4.53;;;4.13;;
15488;SDS011;7846;48.830;9.116;2022-07-23T15:45:57;4.30;;;4.00;;
15488;SDS011;7846;48.830;9.116;2022-07-23T15:48:41;5.30;;;4.63;;
15488;SDS011;7846;48.830;9.116;2022-07-23T15:51:25;4.93;;;4.53;;
15488;SDS011;7846;48.830;9.116;2022-07-23T15:54:09;5.17;;;4.77;;
15488;SDS011;7846;48.830;9.116;2022-07-23T15:56:53;4.73;;;4.33;;
15488;SDS011;7846;48.830;9.116;2022-07-23T15:59:47;4.93;;;4.63;;
15488;SDS011;7846;48.830;9.116;2022-07-23T16:02:30;5.30;;;4.70;;
15488;SDS011;7846;48.830;9.116;2022-07-23T16:05:14;4.97;;;4.53;;
15488;SDS011;7846;48.830;9.116;2022-07-23T16:07:59;4.70;;;4.30;;
15488;SDS011;7846;48.830;9.116;2022-07-23T16:10:45;5.00;;;4.60;;
15488;SDS011;7846;48.830;9.116;2022-07-23T16:13:29;5.07;;;4.67;;
15488;SDS011;7846;48.830;9.116;2022-07-23T16:16:14;5.30;;;4.83;;
15488;SDS011;7846;48.830;9.116;2022-07-23T16:19:01;5.90;;;5.13;;
15488;SDS011;7846;48.830;9.116;2022-07-23T16:21:45;5.50;;;4.90;;
15488;SDS011;7846;48.830;9.116;2022-07-23T16:24:30;5.77;;;5.30;;
15488;SDS011;7846;48.830;9.116;2022-07-23T16:27:16;5.33;;;4.93;;
15488;SDS011;7846;48.830;9.116;2022-07-23T16:30:00;5.47;;;4.97;;
15488;SDS011;7846;48.830;9.116;2022-07-23T16:32:45;5.77;;;5.10;;
15488;SDS011;7846;48.830;9.116;2022-07-23T16:35:29;5.50;;;5.00;;
15488;SDS011;7846;48.830;9.116;2022-07-23T16:38:14;6.03;;;5.63;;
15488;SDS011;7846;48.830;9.116;2022-07-23T16:40:58;6.17;;;5.70;;
15488;SDS011;7846;48.830;9.116;2022-07-23T16:43:43;6.60;;;5.70;;
15488;SDS011;7846;48.830;9.116;2022-07-23T16:46:27;5.57;;;5.17;;
15488;SDS011;7846;48.830;9.116;2022-07-23T16:49:11;5.97;;;5.47;;
15488;SDS011;7846;48.830;9.116;2022-07-23T16:51:56;6.13;;;5.53;;
15488;SDS011;7846;48.830;9.116;2022-07-23T16:54:41;7.70;;;5.87;;
15488;SDS011;7846;48.830;9.116;2022-07-23T16:57:26;6.20;;;5.70;;
15488;SDS011;7846;48.830;9.116;2022-07-23T17:00:11;6.17;;;5.63;;
15488;SDS011;7846;48.830;9.116;2022-07-23T17:02:55;7.00;;;6.40;;
15488;SDS011;7846;48.830;9.116;2022-07-23T17:05:39;6.80;;;6.20;;
15488;SDS011;7846;48.830;9.116;2022-07-23T17:08:23;6.47;;;5.87;;
15488;SDS011;7846;48.830;9.116;2022-07-23T17:11:07;6.83;;;6.30;;
15488;SDS011;7846;48.830;9.116;2022-07-23T17:13:51;6.83;;;6.00;;
15488;SDS011;7846;48.830;9.116;2022-07-23T17:16:35;7.20;;;6.60;;